New Orleans NAS, Louisiana
Current Conditions -  °F | °C
As of 8:55 PM on Friday 31 Oct 2014 (Local Time) from KNBG Reporting Station
Few Clouds Few Clouds  
Wind Chill: 19°   Ceiling: Unl
Heat Index: 19°   Visibility: 10mi
Dew Point:   Wind: 13mph
Humidity: 45%   Direction: 340°NNW
Pressure: 30.12"   Gusts: 25mph
Location:  29.83°N, 90.02°W
Report Text: KNBG 010155Z 34011G22KT 10SM FEW040 19/07 A3012 RMK AO2 SLP198 T01890067 $
Loading
Personal Weather Stations






























Interactive Weather Map New forecast layout! Learn more

10-Day Weather Forecast

Advertisements
Track Severe Weather on mobile